Time;durP1;ratioP1;P1;durP2;ratioP2;P2;SDS_P1;SDS_P2;PMS_P1;PMS_P2;Temp;Humidity;BMP_temperature;BMP_pressure;BME280_temperature;BME280_humidity;BME280_pressure;Samples;Min_cycle;Max_cycle;Signal;HPM_P1;HPM_P2
2024/01/21 00:02:13;;;;;;;7.80;5.10;;;;;;;;;;5099028;28;20187;-84
2024/01/21 00:04:39;;;;;;;7.43;4.63;;;;;;;;;;5100812;28;20172;-85
2024/01/21 00:07:05;;;;;;;9.02;5.47;;;;;;;;;;5101914;28;20168;-84
2024/01/21 00:09:31;;;;;;;6.57;5.20;;;;;;;;;;5100563;28;20210;-84
2024/01/21 00:11:57;;;;;;;10.63;6.43;;;;;;;;;;5082074;28;20184;-85
2024/01/21 00:14:23;;;;;;;8.23;4.40;;;;;;;;;;5083214;28;20182;-84
2024/01/21 00:16:48;;;;;;;8.40;4.40;;;;;;;;;;5100385;28;20252;-84
2024/01/21 00:19:14;;;;;;;10.00;4.80;;;;;;;;;;5100509;28;20444;-84
2024/01/21 00:21:40;;;;;;;6.95;4.68;;;;;;;;;;5117601;28;20180;-84
2024/01/21 00:24:06;;;;;;;7.57;5.30;;;;;;;;;;5103399;28;20523;-84
2024/01/21 00:26:32;;;;;;;7.10;4.13;;;;;;;;;;5104191;28;20248;-84
2024/01/21 00:29:00;;;;;;;8.68;5.47;;;;;;;;;;5102525;28;20240;-84
2024/01/21 00:31:27;;;;;;;8.95;5.72;;;;;;;;;;5121518;28;20254;-84
2024/01/21 00:33:53;;;;;;;7.32;4.93;;;;;;;;;;5121275;28;20160;-84
2024/01/21 00:36:19;;;;;;;8.02;5.30;;;;;;;;;;5121864;28;20178;-84
2024/01/21 00:38:45;;;;;;;7.20;5.20;;;;;;;;;;5103306;28;20670;-84
2024/01/21 00:41:15;;;;;;;8.82;5.35;;;;;;;;;;5121577;28;20163;-84
2024/01/21 00:43:41;;;;;;;9.30;5.20;;;;;;;;;;5121553;28;20171;-84
2024/01/21 00:46:07;;;;;;;9.80;5.20;;;;;;;;;;5102831;28;20163;-84
2024/01/21 00:48:34;;;;;;;11.55;5.53;;;;;;;;;;5117324;28;20516;-84
2024/01/21 00:51:00;;;;;;;7.43;4.50;;;;;;;;;;5100518;28;20172;-84
2024/01/21 00:53:26;;;;;;;11.77;5.93;;;;;;;;;;5100857;28;20186;-84
2024/01/21 00:55:52;;;;;;;6.38;3.80;;;;;;;;;;5121382;28;20402;-84
2024/01/21 00:58:18;;;;;;;6.30;4.32;;;;;;;;;;5121281;28;20517;-84
2024/01/21 01:00:44;;;;;;;9.13;5.72;;;;;;;;;;5121321;28;20160;-84
2024/01/21 01:03:10;;;;;;;7.78;5.15;;;;;;;;;;5121138;28;20160;-83
2024/01/21 01:05:36;;;;;;;6.37;4.57;;;;;;;;;;5103802;28;20212;-84
2024/01/21 01:08:02;;;;;;;7.38;4.90;;;;;;;;;;5121037;28;20896;-84
2024/01/21 01:10:28;;;;;;;6.88;4.45;;;;;;;;;;5102794;28;20216;-84
2024/01/21 01:12:55;;;;;;;7.85;4.45;;;;;;;;;;5120534;28;20182;-84
2024/01/21 01:15:21;;;;;;;7.03;4.82;;;;;;;;;;5121386;28;20163;-83
2024/01/21 01:17:47;;;;;;;8.55;5.05;;;;;;;;;;5120527;28;20186;-84
2024/01/21 01:20:13;;;;;;;8.15;6.25;;;;;;;;;;5121220;28;20182;-84
2024/01/21 01:22:39;;;;;;;7.80;4.75;;;;;;;;;;5121641;28;20174;-82
2024/01/21 01:25:06;;;;;;;8.52;5.28;;;;;;;;;;5103459;28;20194;-82
2024/01/21 01:27:32;;;;;;;8.55;5.30;;;;;;;;;;5120967;28;20177;-82
2024/01/21 01:29:58;;;;;;;6.82;5.05;;;;;;;;;;5120830;28;20246;-82
2024/01/21 01:32:24;;;;;;;10.60;5.45;;;;;;;;;;5102344;28;20175;-82
2024/01/21 01:34:52;;;;;;;11.97;5.53;;;;;;;;;;5102558;28;20170;-82
2024/01/21 01:37:18;;;;;;;8.55;4.95;;;;;;;;;;5120867;28;20896;-82
2024/01/21 01:39:44;;;;;;;9.98;5.20;;;;;;;;;;5120928;28;20643;-83
2024/01/21 01:42:10;;;;;;;8.45;5.22;;;;;;;;;;5101768;28;20182;-82
2024/01/21 01:44:40;;;;;;;12.18;5.97;;;;;;;;;;5121154;28;20158;-82
2024/01/21 01:47:06;;;;;;;9.82;5.30;;;;;;;;;;5120758;28;20180;-82
2024/01/21 01:49:32;;;;;;;9.30;5.38;;;;;;;;;;5120705;28;20238;-82
2024/01/21 01:51:59;;;;;;;7.88;4.70;;;;;;;;;;5107745;28;20526;-82
2024/01/21 01:54:27;;;;;;;9.93;5.18;;;;;;;;;;5100255;28;20286;-82
2024/01/21 01:56:53;;;;;;;6.53;3.95;;;;;;;;;;5100071;28;20627;-82
2024/01/21 01:59:20;;;;;;;9.25;4.05;;;;;;;;;;5100669;28;20207;-82
2024/01/21 02:01:46;;;;;;;4.90;3.72;;;;;;;;;;5100579;28;20176;-82
2024/01/21 02:04:12;;;;;;;8.80;5.20;;;;;;;;;;5065821;28;20270;-82
2024/01/21 02:06:39;;;;;;;6.05;4.22;;;;;;;;;;5082930;28;20188;-82
2024/01/21 02:09:05;;;;;;;8.07;4.22;;;;;;;;;;5081873;28;20563;-82
2024/01/21 02:11:31;;;;;;;5.45;3.45;;;;;;;;;;5097028;28;20695;-82
2024/01/21 02:13:57;;;;;;;6.07;3.30;;;;;;;;;;5121587;28;20174;-82
2024/01/21 02:16:23;;;;;;;6.82;3.80;;;;;;;;;;5121808;28;20163;-82
2024/01/21 02:18:50;;;;;;;5.57;4.00;;;;;;;;;;5121708;28;20183;-82
2024/01/21 02:21:17;;;;;;;7.93;3.90;;;;;;;;;;5121443;28;20171;-82
2024/01/21 02:23:45;;;;;;;5.63;3.88;;;;;;;;;;5109607;28;20260;-82
2024/01/21 02:26:11;;;;;;;4.10;3.03;;;;;;;;;;5101137;28;20208;-81
2024/01/21 02:28:37;;;;;;;7.10;3.55;;;;;;;;;;5082917;28;20534;-82
2024/01/21 02:31:03;;;;;;;4.78;3.40;;;;;;;;;;5099845;28;20183;-82
2024/01/21 02:33:29;;;;;;;3.75;2.92;;;;;;;;;;5099680;28;20171;-82
2024/01/21 02:35:55;;;;;;;5.45;3.10;;;;;;;;;;5083520;28;20168;-82
2024/01/21 02:38:21;;;;;;;7.68;3.92;;;;;;;;;;5103759;28;20255;-82
2024/01/21 02:40:47;;;;;;;4.72;3.20;;;;;;;;;;5103904;28;20211;-82
2024/01/21 02:43:13;;;;;;;6.22;3.40;;;;;;;;;;5103793;28;20232;-81
2024/01/21 02:45:39;;;;;;;4.03;3.10;;;;;;;;;;5104606;28;20164;-81
2024/01/21 02:48:05;;;;;;;5.40;3.80;;;;;;;;;;5103332;28;20173;-82
2024/01/21 02:50:31;;;;;;;6.85;3.95;;;;;;;;;;5104299;28;20503;-82
2024/01/21 02:52:57;;;;;;;4.50;3.15;;;;;;;;;;5103798;28;20168;-82
2024/01/21 02:55:23;;;;;;;4.57;2.97;;;;;;;;;;5104428;28;20619;-82
2024/01/21 02:57:49;;;;;;;6.45;4.38;;;;;;;;;;5089607;28;20448;-82
2024/01/21 03:00:16;;;;;;;4.65;3.65;;;;;;;;;;5104481;28;20187;-82
2024/01/21 03:02:42;;;;;;;7.03;4.35;;;;;;;;;;5112717;28;20187;-82
2024/01/21 03:05:08;;;;;;;8.88;4.15;;;;;;;;;;5123604;28;20167;-82
2024/01/21 03:07:33;;;;;;;6.05;3.60;;;;;;;;;;5124420;28;20164;-82
2024/01/21 03:09:59;;;;;;;6.93;4.70;;;;;;;;;;5123913;28;20191;-82
2024/01/21 03:12:25;;;;;;;7.57;4.53;;;;;;;;;;5105610;28;20436;-82
2024/01/21 03:14:51;;;;;;;7.60;4.65;;;;;;;;;;5122720;28;20199;-82
2024/01/21 03:17:17;;;;;;;7.80;5.18;;;;;;;;;;5105150;28;20207;-83
2024/01/21 03:19:44;;;;;;;7.03;5.15;;;;;;;;;;5123287;28;20179;-82
2024/01/21 03:22:10;;;;;;;9.35;5.50;;;;;;;;;;5122683;28;20162;-82
2024/01/21 03:24:36;;;;;;;8.52;5.25;;;;;;;;;;5105470;28;20191;-83
2024/01/21 03:27:02;;;;;;;5.85;4.25;;;;;;;;;;5123546;28;20168;-82
2024/01/21 03:29:28;;;;;;;11.70;5.43;;;;;;;;;;5105459;28;20203;-82
2024/01/21 03:31:54;;;;;;;8.40;5.60;;;;;;;;;;5105038;28;20221;-83
2024/01/21 03:34:20;;;;;;;8.80;5.32;;;;;;;;;;5122561;28;20167;-83
2024/01/21 03:36:46;;;;;;;10.57;5.70;;;;;;;;;;5104663;28;20171;-82
2024/01/21 03:39:12;;;;;;;10.43;5.80;;;;;;;;;;5122787;28;20180;-82
2024/01/21 03:41:38;;;;;;;10.50;6.45;;;;;;;;;;5105912;28;20670;-82
2024/01/21 03:44:04;;;;;;;10.65;6.28;;;;;;;;;;5103166;28;20171;-83
2024/01/21 03:46:30;;;;;;;12.73;6.70;;;;;;;;;;5102726;28;20180;-82
2024/01/21 03:48:56;;;;;;;13.57;5.50;;;;;;;;;;5101883;28;20299;-82
2024/01/21 03:51:22;;;;;;;9.50;5.53;;;;;;;;;;5101937;28;20181;-82
2024/01/21 03:53:48;;;;;;;11.05;6.35;;;;;;;;;;5084182;28;20426;-82
2024/01/21 03:56:20;;;;;;;9.70;4.75;;;;;;;;;;5102132;28;20553;-82
2024/01/21 03:58:46;;;;;;;8.48;5.70;;;;;;;;;;5102316;28;20168;-82
2024/01/21 04:01:12;;;;;;;9.80;6.05;;;;;;;;;;5084045;28;20170;-83
2024/01/21 04:03:38;;;;;;;9.32;5.07;;;;;;;;;;5101482;28;20199;-82
2024/01/21 04:06:04;;;;;;;9.27;5.70;;;;;;;;;;5102036;28;20172;-83
2024/01/21 04:08:30;;;;;;;10.93;5.35;;;;;;;;;;5101965;28;20429;-82
2024/01/21 04:10:56;;;;;;;9.18;4.70;;;;;;;;;;5084045;28;20168;-83
2024/01/21 04:13:22;;;;;;;8.18;4.78;;;;;;;;;;5101674;28;20188;-83
2024/01/21 04:15:48;;;;;;;8.75;5.63;;;;;;;;;;5105691;28;20164;-83
2024/01/21 04:18:14;;;;;;;7.65;4.60;;;;;;;;;;5104395;28;20182;-83
2024/01/21 04:20:40;;;;;;;6.32;4.05;;;;;;;;;;5103846;28;20179;-82
2024/01/21 04:23:06;;;;;;;7.05;4.68;;;;;;;;;;5104377;28;20168;-82
2024/01/21 04:25:32;;;;;;;7.68;3.60;;;;;;;;;;5122596;28;20171;-82
2024/01/21 04:27:58;;;;;;;7.32;4.90;;;;;;;;;;5104612;28;20220;-81
2024/01/21 04:30:24;;;;;;;7.07;3.70;;;;;;;;;;5104403;28;20203;-82
2024/01/21 04:32:50;;;;;;;6.30;3.80;;;;;;;;;;5122417;28;20408;-82
2024/01/21 04:35:17;;;;;;;6.32;3.60;;;;;;;;;;5123349;28;20397;-81
2024/01/21 04:37:43;;;;;;;6.10;3.45;;;;;;;;;;5122346;28;20189;-81
2024/01/21 04:40:09;;;;;;;6.40;3.72;;;;;;;;;;5123264;28;20513;-81
2024/01/21 04:42:35;;;;;;;5.68;3.80;;;;;;;;;;5122207;28;20511;-82
2024/01/21 04:45:02;;;;;;;7.47;3.88;;;;;;;;;;5117822;28;20184;-81
2024/01/21 04:47:28;;;;;;;5.50;3.80;;;;;;;;;;5102248;28;20175;-81
2024/01/21 04:49:54;;;;;;;6.30;3.83;;;;;;;;;;5102757;28;20220;-83
2024/01/21 04:52:20;;;;;;;7.07;4.30;;;;;;;;;;5111369;28;20183;-82
2024/01/21 04:54:46;;;;;;;9.48;4.57;;;;;;;;;;5084306;28;20404;-82
2024/01/21 04:57:12;;;;;;;7.80;4.70;;;;;;;;;;5083991;28;20183;-82
2024/01/21 04:59:38;;;;;;;6.97;4.40;;;;;;;;;;5101010;28;20444;-82
2024/01/21 05:02:04;;;;;;;7.27;4.40;;;;;;;;;;5101623;28;20172;-82
2024/01/21 05:04:30;;;;;;;9.80;5.00;;;;;;;;;;5084308;28;20406;-82
2024/01/21 05:06:56;;;;;;;8.70;4.95;;;;;;;;;;5102056;28;20608;-82
2024/01/21 05:09:22;;;;;;;7.95;4.30;;;;;;;;;;5104722;28;20202;-82
2024/01/21 05:11:48;;;;;;;6.50;4.53;;;;;;;;;;5101999;28;20160;-81
2024/01/21 05:14:14;;;;;;;9.30;5.50;;;;;;;;;;5101638;28;20176;-81
2024/01/21 05:16:40;;;;;;;9.50;4.90;;;;;;;;;;5083857;28;20438;-81
2024/01/21 05:19:06;;;;;;;9.07;4.82;;;;;;;;;;5119285;28;20429;-81
2024/01/21 05:21:32;;;;;;;6.63;4.27;;;;;;;;;;5122022;28;20729;-81
2024/01/21 05:23:58;;;;;;;9.35;5.35;;;;;;;;;;5103245;28;20405;-81
2024/01/21 05:26:24;;;;;;;6.30;3.90;;;;;;;;;;5121888;28;20258;-81
2024/01/21 05:28:52;;;;;;;6.80;5.32;;;;;;;;;;5121963;28;20206;-81
2024/01/21 05:31:20;;;;;;;6.72;4.40;;;;;;;;;;5103180;28;20672;-81
2024/01/21 05:33:46;;;;;;;9.88;4.80;;;;;;;;;;5122062;28;20239;-81
2024/01/21 05:36:12;;;;;;;9.18;4.97;;;;;;;;;;5121071;28;20190;-81
2024/01/21 05:38:39;;;;;;;8.40;4.82;;;;;;;;;;5121616;28;20634;-81
2024/01/21 05:41:05;;;;;;;6.72;4.38;;;;;;;;;;5121351;28;20195;-81
2024/01/21 05:43:31;;;;;;;7.53;4.40;;;;;;;;;;5104415;28;20186;-81
2024/01/21 05:45:57;;;;;;;10.50;5.00;;;;;;;;;;5122276;28;20167;-82
2024/01/21 05:48:23;;;;;;;9.75;4.65;;;;;;;;;;5103404;28;20228;-81
2024/01/21 05:50:49;;;;;;;8.15;4.45;;;;;;;;;;5122072;28;20174;-81
2024/01/21 05:53:15;;;;;;;5.72;4.70;;;;;;;;;;5122230;28;20171;-81
2024/01/21 05:55:41;;;;;;;8.73;5.70;;;;;;;;;;5121517;28;20174;-81
2024/01/21 05:58:07;;;;;;;7.90;4.53;;;;;;;;;;5104099;28;20599;-81
2024/01/21 06:00:32;;;;;;;9.50;4.70;;;;;;;;;;5103718;28;20239;-81
2024/01/21 06:02:58;;;;;;;8.25;4.95;;;;;;;;;;5083416;28;20211;-82
2024/01/21 06:05:24;;;;;;;9.05;5.28;;;;;;;;;;5102090;28;20164;-81
2024/01/21 06:07:50;;;;;;;10.13;5.30;;;;;;;;;;5102321;28;20216;-80
2024/01/21 06:10:17;;;;;;;7.82;5.65;;;;;;;;;;5084421;28;20634;-81
2024/01/21 06:12:42;;;;;;;8.65;5.35;;;;;;;;;;5105672;28;20216;-81
2024/01/21 06:15:09;;;;;;;8.98;5.60;;;;;;;;;;5105181;28;20636;-81
2024/01/21 06:17:35;;;;;;;14.13;6.00;;;;;;;;;;5104853;28;20157;-81
2024/01/21 06:20:01;;;;;;;10.03;5.10;;;;;;;;;;5105386;28;20282;-81
2024/01/21 06:22:28;;;;;;;8.32;5.13;;;;;;;;;;5105887;28;20394;-81
2024/01/21 06:24:54;;;;;;;8.85;5.05;;;;;;;;;;5106370;28;20163;-80
2024/01/21 06:27:20;;;;;;;8.60;5.77;;;;;;;;;;5105810;28;20196;-81
2024/01/21 06:29:46;;;;;;;10.30;5.95;;;;;;;;;;5105605;28;20514;-81
2024/01/21 06:32:12;;;;;;;8.43;6.30;;;;;;;;;;5105923;28;20165;-81
2024/01/21 06:34:38;;;;;;;9.20;5.55;;;;;;;;;;5105623;28;20378;-81
2024/01/21 06:37:04;;;;;;;11.75;6.13;;;;;;;;;;5105457;28;20179;-82
2024/01/21 06:39:30;;;;;;;12.27;5.55;;;;;;;;;;5109996;28;20219;-81
2024/01/21 06:41:57;;;;;;;10.82;5.95;;;;;;;;;;5124659;28;20180;-81
2024/01/21 06:44:23;;;;;;;8.02;5.53;;;;;;;;;;5126207;28;20160;-81
2024/01/21 06:46:49;;;;;;;9.63;5.40;;;;;;;;;;5110703;28;20696;-81
2024/01/21 06:49:15;;;;;;;8.70;6.05;;;;;;;;;;5105017;28;20242;-81
2024/01/21 06:51:53;;;;;;;6.82;4.47;;;;;;;;;;5106143;28;20166;-81
2024/01/21 06:54:19;;;;;;;7.40;5.30;;;;;;;;;;5105147;28;20173;-81
2024/01/21 06:56:45;;;;;;;7.00;5.10;;;;;;;;;;5105070;28;20169;-81
2024/01/21 06:59:11;;;;;;;6.05;5.10;;;;;;;;;;5104819;28;20233;-81
2024/01/21 07:01:37;;;;;;;8.40;4.97;;;;;;;;;;5104091;28;20207;-81
2024/01/21 07:04:03;;;;;;;8.35;5.10;;;;;;;;;;5114173;28;20172;-81
2024/01/21 07:06:29;;;;;;;8.07;4.70;;;;;;;;;;5125878;28;20167;-81
2024/01/21 07:08:56;;;;;;;9.82;5.22;;;;;;;;;;5125638;28;20294;-81
2024/01/21 07:11:22;;;;;;;6.97;4.97;;;;;;;;;;5125503;28;20164;-81
2024/01/21 07:13:48;;;;;;;6.63;4.40;;;;;;;;;;5125523;28;20250;-81
2024/01/21 07:16:14;;;;;;;9.13;5.10;;;;;;;;;;5107748;28;20632;-81
2024/01/21 07:18:40;;;;;;;8.13;5.43;;;;;;;;;;5125117;28;20186;-81
2024/01/21 07:21:06;;;;;;;8.27;5.55;;;;;;;;;;5124724;28;20188;-82
2024/01/21 07:23:32;;;;;;;7.60;5.22;;;;;;;;;;5125296;28;20170;-81
2024/01/21 07:25:58;;;;;;;10.90;6.15;;;;;;;;;;5125322;28;20163;-81
2024/01/21 07:28:24;;;;;;;12.27;6.63;;;;;;;;;;5126875;28;20235;-79
2024/01/21 07:30:50;;;;;;;7.15;5.20;;;;;;;;;;5127565;28;20172;-80
2024/01/21 07:33:16;;;;;;;11.27;6.00;;;;;;;;;;5107871;28;20172;-80
2024/01/21 07:35:42;;;;;;;8.87;5.90;;;;;;;;;;5126487;28;20178;-79
2024/01/21 07:38:09;;;;;;;10.70;5.75;;;;;;;;;;5124367;28;20394;-82
2024/01/21 07:40:35;;;;;;;10.45;6.90;;;;;;;;;;5123690;28;20168;-82
2024/01/21 07:43:02;;;;;;;10.50;6.32;;;;;;;;;;5124040;28;20194;-82
2024/01/21 07:45:28;;;;;;;10.55;6.78;;;;;;;;;;5124452;28;20508;-81
2024/01/21 07:47:54;;;;;;;11.23;6.72;;;;;;;;;;5125145;28;20250;-81
2024/01/21 07:50:20;;;;;;;8.20;6.20;;;;;;;;;;5124119;28;20275;-81
2024/01/21 07:52:46;;;;;;;9.77;6.30;;;;;;;;;;5124992;28;20405;-80
2024/01/21 07:55:13;;;;;;;11.65;6.13;;;;;;;;;;5123952;28;20405;-82
2024/01/21 07:57:39;;;;;;;8.68;5.90;;;;;;;;;;5105865;28;20171;-81
2024/01/21 08:00:05;;;;;;;10.43;6.50;;;;;;;;;;5123524;28;20181;-83
2024/01/21 08:02:31;;;;;;;8.73;5.50;;;;;;;;;;5111139;28;20430;-81
2024/01/21 08:04:57;;;;;;;9.23;5.65;;;;;;;;;;5069446;28;20178;-81
2024/01/21 08:07:23;;;;;;;9.63;5.80;;;;;;;;;;5111882;28;20196;-82
2024/01/21 08:09:49;;;;;;;9.38;6.82;;;;;;;;;;5123984;28;20203;-82
2024/01/21 08:12:15;;;;;;;10.63;6.40;;;;;;;;;;5123129;28;20164;-83
2024/01/21 08:14:41;;;;;;;10.40;6.10;;;;;;;;;;5122858;28;20171;-82
2024/01/21 08:17:07;;;;;;;9.23;5.90;;;;;;;;;;5122736;28;20509;-83
2024/01/21 08:19:37;;;;;;;9.80;5.93;;;;;;;;;;5105045;28;20205;-81
2024/01/21 08:22:03;;;;;;;8.85;6.55;;;;;;;;;;5123825;28;20159;-82
2024/01/21 08:24:29;;;;;;;10.43;6.63;;;;;;;;;;5122633;28;20534;-82
2024/01/21 08:26:55;;;;;;;11.23;8.55;;;;;;;;;;5122872;28;20173;-82
2024/01/21 08:29:21;;;;;;;10.07;6.50;;;;;;;;;;5104737;28;20213;-82
2024/01/21 08:31:47;;;;;;;7.90;7.10;;;;;;;;;;5122922;28;20624;-81
2024/01/21 08:34:13;;;;;;;7.83;6.83;;;;;;;;;;5122323;28;20409;-82
2024/01/21 08:36:39;;;;;;;9.25;5.43;;;;;;;;;;5122236;28;20400;-82
2024/01/21 08:39:05;;;;;;;14.98;5.90;;;;;;;;;;5122732;28;20208;-82
2024/01/21 08:41:34;;;;;;;12.57;7.45;;;;;;;;;;5122532;28;20487;-82
2024/01/21 08:44:00;;;;;;;14.13;5.82;;;;;;;;;;5121876;28;20521;-82
2024/01/21 08:46:26;;;;;;;8.77;6.57;;;;;;;;;;5122146;28;20159;-82
2024/01/21 08:48:52;;;;;;;13.80;7.53;;;;;;;;;;5122400;28;20310;-82
2024/01/21 08:51:18;;;;;;;10.65;5.70;;;;;;;;;;5122062;28;20255;-82
2024/01/21 08:53:44;;;;;;;11.38;6.88;;;;;;;;;;5122576;28;20232;-82
2024/01/21 08:56:10;;;;;;;7.90;5.97;;;;;;;;;;5103413;28;20191;-82
2024/01/21 08:58:36;;;;;;;12.10;6.83;;;;;;;;;;5120997;28;20522;-82
2024/01/21 09:01:02;;;;;;;8.95;6.75;;;;;;;;;;5121525;28;20401;-82
2024/01/21 09:03:30;;;;;;;9.63;6.10;;;;;;;;;;5120912;28;20221;-82
2024/01/21 09:05:56;;;;;;;9.02;6.47;;;;;;;;;;5121657;28;20169;-82
2024/01/21 09:08:22;;;;;;;10.18;7.45;;;;;;;;;;5121820;28;20183;-81
2024/01/21 09:10:48;;;;;;;8.02;5.88;;;;;;;;;;5103601;28;20276;-81
2024/01/21 09:13:14;;;;;;;9.35;6.82;;;;;;;;;;5120026;28;20169;-82
2024/01/21 09:15:41;;;;;;;11.80;5.97;;;;;;;;;;5100800;28;20170;-81
2024/01/21 09:18:07;;;;;;;13.32;6.47;;;;;;;;;;5083492;28;20406;-81
2024/01/21 09:20:33;;;;;;;11.98;5.72;;;;;;;;;;5100442;28;20711;-82
2024/01/21 09:22:59;;;;;;;10.47;6.83;;;;;;;;;;5100844;28;20254;-82
2024/01/21 09:25:25;;;;;;;8.82;6.40;;;;;;;;;;5100655;28;20394;-82
2024/01/21 09:27:51;;;;;;;11.37;6.77;;;;;;;;;;5100791;28;20171;-82
2024/01/21 09:30:17;;;;;;;10.90;7.23;;;;;;;;;;5100686;28;20460;-82
2024/01/21 09:32:42;;;;;;;13.35;6.15;;;;;;;;;;5099909;28;20424;-82
2024/01/21 09:35:09;;;;;;;10.50;7.47;;;;;;;;;;5100537;28;20171;-82
2024/01/21 09:37:35;;;;;;;15.10;6.40;;;;;;;;;;5082501;28;20409;-80
2024/01/21 09:40:01;;;;;;;12.90;6.88;;;;;;;;;;5102040;28;20183;-82
2024/01/21 09:42:27;;;;;;;10.40;6.53;;;;;;;;;;5100112;28;20262;-82
2024/01/21 09:44:53;;;;;;;7.90;6.13;;;;;;;;;;5099883;28;20256;-82
2024/01/21 09:47:19;;;;;;;10.30;6.38;;;;;;;;;;5099792;28;20497;-82
2024/01/21 09:49:46;;;;;;;11.95;7.82;;;;;;;;;;5099695;28;20653;-83
2024/01/21 09:52:12;;;;;;;9.05;6.53;;;;;;;;;;5099145;28;20175;-82
2024/01/21 09:54:38;;;;;;;14.88;7.20;;;;;;;;;;5081763;28;20569;-82
2024/01/21 09:57:06;;;;;;;11.73;8.10;;;;;;;;;;5099940;28;20168;-83
2024/01/21 09:59:32;;;;;;;10.05;7.80;;;;;;;;;;5081673;28;20180;-82
2024/01/21 10:01:58;;;;;;;15.18;8.90;;;;;;;;;;5099853;28;20168;-82
2024/01/21 10:04:24;;;;;;;13.32;8.25;;;;;;;;;;5081429;28;20210;-83
2024/01/21 10:06:51;;;;;;;11.38;6.72;;;;;;;;;;5099347;28;20562;-83
2024/01/21 10:09:21;;;;;;;11.35;6.80;;;;;;;;;;5101515;28;20304;-83
2024/01/21 10:12:05;;;;;;;10.38;6.32;;;;;;;;;;5081561;28;20172;-83
2024/01/21 10:14:31;;;;;;;10.27;7.03;;;;;;;;;;5093918;28;20214;-82
2024/01/21 10:16:57;;;;;;;11.10;7.07;;;;;;;;;;5119114;28;20490;-84
2024/01/21 10:19:27;;;;;;;9.50;7.80;;;;;;;;;;5100699;28;20583;-83
2024/01/21 10:22:22;;;;;;;10.38;6.60;;;;;;;;;;5119505;28;20638;-83
2024/01/21 10:24:49;;;;;;;8.45;6.30;;;;;;;;;;5117328;28;20172;-84
2024/01/21 10:27:18;;;;;;;11.05;7.10;;;;;;;;;;5120060;28;20220;-84
2024/01/21 10:29:45;;;;;;;12.52;5.80;;;;;;;;;;5119032;28;20193;-83
2024/01/21 10:32:12;;;;;;;13.77;7.35;;;;;;;;;;5119029;28;20192;-84
2024/01/21 10:34:41;;;;;;;10.05;6.28;;;;;;;;;;5105151;28;20183;-85
2024/01/21 10:37:07;;;;;;;8.23;6.72;;;;;;;;;;5099206;28;20198;-85
2024/01/21 10:39:35;;;;;;;10.35;7.18;;;;;;;;;;5080200;28;20650;-85
2024/01/21 10:42:01;;;;;;;9.82;7.07;;;;;;;;;;5098504;28;20168;-85
2024/01/21 10:44:28;;;;;;;9.65;6.70;;;;;;;;;;5099210;28;20161;-84
2024/01/21 10:46:55;;;;;;;11.15;7.63;;;;;;;;;;5098656;28;20175;-85
2024/01/21 10:49:21;;;;;;;9.70;6.50;;;;;;;;;;5080475;28;20235;-85
2024/01/21 10:51:47;;;;;;;11.93;7.93;;;;;;;;;;5080784;28;20168;-85
2024/01/21 10:54:14;;;;;;;11.27;7.07;;;;;;;;;;5098038;28;20175;-85
2024/01/21 10:56:40;;;;;;;11.70;7.35;;;;;;;;;;5099932;28;20173;-85
2024/01/21 10:59:06;;;;;;;13.45;7.20;;;;;;;;;;5084272;28;20183;-85
2024/01/21 11:01:32;;;;;;;11.88;6.78;;;;;;;;;;5102423;28;20550;-86
2024/01/21 11:04:07;;;;;;;11.95;6.78;;;;;;;;;;5067368;28;20178;-86
2024/01/21 11:06:34;;;;;;;9.20;6.53;;;;;;;;;;5114670;28;20170;-86
2024/01/21 11:09:02;;;;;;;9.18;6.85;;;;;;;;;;5101583;28;20375;-86
2024/01/21 11:11:28;;;;;;;8.57;5.72;;;;;;;;;;5082996;28;20232;-85
2024/01/21 11:13:54;;;;;;;10.90;7.10;;;;;;;;;;5083259;28;20638;-85
2024/01/21 11:16:28;;;;;;;9.02;6.15;;;;;;;;;;5101073;28;20403;-86
2024/01/21 11:18:54;;;;;;;12.75;6.65;;;;;;;;;;5101732;28;20509;-86
2024/01/21 11:21:21;;;;;;;11.32;7.75;;;;;;;;;;5083605;28;20227;-85
2024/01/21 11:23:59;;;;;;;11.73;7.25;;;;;;;;;;5101022;28;20554;-86
2024/01/21 11:26:25;;;;;;;10.50;6.80;;;;;;;;;;5118915;28;20681;-85
2024/01/21 11:28:51;;;;;;;10.00;6.90;;;;;;;;;;5120865;28;20238;-85
2024/01/21 11:31:21;;;;;;;12.98;7.10;;;;;;;;;;5121421;28;20400;-85
2024/01/21 11:34:04;;;;;;;8.65;5.85;;;;;;;;;;5121510;28;20166;-85
2024/01/21 11:36:30;;;;;;;9.55;6.80;;;;;;;;;;5121164;28;20246;-85
2024/01/21 11:38:57;;;;;;;9.27;6.05;;;;;;;;;;5121324;28;20173;-85
2024/01/21 11:41:26;;;;;;;9.68;7.22;;;;;;;;;;5120774;28;20292;-84
2024/01/21 11:43:53;;;;;;;11.85;6.85;;;;;;;;;;5120807;28;20182;-85
2024/01/21 11:46:19;;;;;;;7.93;5.75;;;;;;;;;;5120273;28;20172;-84
2024/01/21 11:48:45;;;;;;;8.65;6.45;;;;;;;;;;5120835;28;20251;-85
2024/01/21 11:51:11;;;;;;;10.05;6.20;;;;;;;;;;5102179;28;20523;-85
2024/01/21 11:53:37;;;;;;;10.77;6.47;;;;;;;;;;5120684;28;20175;-85
2024/01/21 11:56:03;;;;;;;16.02;10.55;;;;;;;;;;5120745;28;20406;-84
2024/01/21 11:58:29;;;;;;;8.10;6.50;;;;;;;;;;5120789;28;20167;-84
2024/01/21 12:00:55;;;;;;;8.80;6.10;;;;;;;;;;5121202;28;20171;-85
2024/01/21 12:03:21;;;;;;;8.15;5.40;;;;;;;;;;5101590;28;20409;-84
2024/01/21 12:05:47;;;;;;;9.73;5.77;;;;;;;;;;5120657;28;20171;-85
2024/01/21 12:08:13;;;;;;;10.20;5.53;;;;;;;;;;5102081;28;20429;-84
2024/01/21 12:10:39;;;;;;;9.63;6.18;;;;;;;;;;5120275;28;20210;-84
2024/01/21 12:13:06;;;;;;;5.95;5.22;;;;;;;;;;5101275;28;20175;-85
2024/01/21 12:15:36;;;;;;;8.35;4.68;;;;;;;;;;5099926;28;20225;-84
2024/01/21 12:18:02;;;;;;;7.38;5.40;;;;;;;;;;5105361;28;20195;-84
2024/01/21 12:20:29;;;;;;;7.90;5.38;;;;;;;;;;5102485;28;20163;-84
2024/01/21 12:22:55;;;;;;;8.07;5.82;;;;;;;;;;5120171;28;20171;-84
2024/01/21 12:25:24;;;;;;;9.18;5.85;;;;;;;;;;5120356;28;20498;-83
2024/01/21 12:27:55;;;;;;;10.50;5.05;;;;;;;;;;5119235;28;20621;-83
2024/01/21 12:30:24;;;;;;;6.40;4.47;;;;;;;;;;5119227;28;20274;-83
2024/01/21 12:32:50;;;;;;;6.47;4.45;;;;;;;;;;5120251;28;20243;-84
2024/01/21 12:35:16;;;;;;;6.18;4.95;;;;;;;;;;5120010;28;20210;-83
2024/01/21 12:37:43;;;;;;;7.87;5.47;;;;;;;;;;5118917;28;20195;-83
2024/01/21 12:40:09;;;;;;;8.65;5.28;;;;;;;;;;5119479;28;20452;-83
2024/01/21 12:42:35;;;;;;;8.15;5.00;;;;;;;;;;5120508;28;20262;-83
2024/01/21 12:45:01;;;;;;;6.32;4.25;;;;;;;;;;5104982;28;20183;-83
2024/01/21 12:47:27;;;;;;;5.55;4.32;;;;;;;;;;5119561;28;20537;-84
2024/01/21 12:49:53;;;;;;;6.70;4.90;;;;;;;;;;5119182;28;20234;-84
2024/01/21 12:52:19;;;;;;;7.85;5.63;;;;;;;;;;5119765;28;20186;-84
2024/01/21 12:54:45;;;;;;;5.83;4.93;;;;;;;;;;5119738;28;20171;-83
2024/01/21 12:57:11;;;;;;;7.60;4.10;;;;;;;;;;5119177;28;20423;-84
2024/01/21 12:59:37;;;;;;;6.17;5.00;;;;;;;;;;5119302;28;20425;-83
2024/01/21 13:02:03;;;;;;;8.57;5.17;;;;;;;;;;5119644;28;20398;-83
2024/01/21 13:04:29;;;;;;;10.05;4.45;;;;;;;;;;5118866;28;20450;-83
2024/01/21 13:06:55;;;;;;;10.43;4.63;;;;;;;;;;5119238;28;20174;-83
2024/01/21 13:09:21;;;;;;;8.52;5.75;;;;;;;;;;5110446;28;20979;-83
2024/01/21 13:11:47;;;;;;;8.20;5.63;;;;;;;;;;5115374;28;20186;-83
2024/01/21 13:14:13;;;;;;;11.13;6.37;;;;;;;;;;5119772;28;20170;-83
2024/01/21 13:16:39;;;;;;;8.38;6.43;;;;;;;;;;5110586;28;20400;-83
2024/01/21 13:19:05;;;;;;;9.37;5.27;;;;;;;;;;5097978;28;20528;-83
2024/01/21 13:21:31;;;;;;;22.95;9.20;;;;;;;;;;5105980;28;20498;-83
2024/01/21 13:23:57;;;;;;;9.87;5.63;;;;;;;;;;5101330;28;20205;-83
2024/01/21 13:26:25;;;;;;;13.05;8.85;;;;;;;;;;5119462;28;20408;-82
2024/01/21 13:31:37;;;;;;;8.05;5.95;;;;;;;;;;5117389;28;20175;-82
2024/01/21 13:34:04;;;;;;;9.75;7.78;;;;;;;;;;5101760;28;20309;-80
2024/01/21 13:36:30;;;;;;;8.23;6.70;;;;;;;;;;5098320;28;20175;-81
2024/01/21 13:38:56;;;;;;;6.13;4.88;;;;;;;;;;5099178;28;20176;-80
2024/01/21 13:41:22;;;;;;;10.35;6.25;;;;;;;;;;5118484;28;20179;-81
2024/01/21 13:43:49;;;;;;;11.35;7.93;;;;;;;;;;5117831;28;20171;-83
2024/01/21 13:46:17;;;;;;;8.52;6.00;;;;;;;;;;5117982;28;20178;-83
2024/01/21 13:48:43;;;;;;;9.02;6.00;;;;;;;;;;5117703;28;20225;-81
2024/01/21 13:51:10;;;;;;;9.75;6.82;;;;;;;;;;5117989;28;20196;-81
2024/01/21 13:53:36;;;;;;;7.28;4.85;;;;;;;;;;5117227;28;20166;-81
2024/01/21 13:56:03;;;;;;;8.75;5.68;;;;;;;;;;5117121;28;20220;-81
2024/01/21 13:58:29;;;;;;;7.70;5.43;;;;;;;;;;5117328;28;20313;-81
2024/01/21 14:00:55;;;;;;;6.13;5.20;;;;;;;;;;5117729;28;20217;-81
2024/01/21 14:03:21;;;;;;;7.83;5.60;;;;;;;;;;5117028;28;20401;-83
2024/01/21 14:05:47;;;;;;;9.05;5.05;;;;;;;;;;5116773;28;20762;-81
2024/01/21 14:08:13;;;;;;;8.40;6.13;;;;;;;;;;5122541;28;20173;-81
2024/01/21 14:10:39;;;;;;;6.40;4.90;;;;;;;;;;5117289;28;20521;-81
2024/01/21 14:13:06;;;;;;;8.02;5.32;;;;;;;;;;5117432;28;20441;-81
2024/01/21 14:15:32;;;;;;;7.38;5.88;;;;;;;;;;5116971;28;20203;-81
2024/01/21 14:17:58;;;;;;;6.47;5.10;;;;;;;;;;5117260;28;20197;-81
2024/01/21 14:20:24;;;;;;;8.65;5.72;;;;;;;;;;5117889;28;20176;-81
2024/01/21 14:22:50;;;;;;;5.27;4.57;;;;;;;;;;5099023;28;20546;-81
2024/01/21 14:25:20;;;;;;;7.80;6.03;;;;;;;;;;5117408;28;20721;-81
2024/01/21 14:27:46;;;;;;;6.55;5.22;;;;;;;;;;5117078;28;20683;-81
2024/01/21 14:30:17;;;;;;;8.48;4.90;;;;;;;;;;5117618;28;20281;-83
2024/01/21 14:32:43;;;;;;;10.85;5.45;;;;;;;;;;5120678;28;20168;-81
2024/01/21 14:35:08;;;;;;;9.53;6.50;;;;;;;;;;5121647;28;20199;-81
2024/01/21 14:37:34;;;;;;;8.03;5.60;;;;;;;;;;5120894;28;20425;-81